createdAt,value
2019-04-07T00:04:02.051Z,30.200001
2019-04-07T00:09:24.668Z,29.9
2019-04-07T00:14:48.132Z,30.1
2019-04-07T00:20:10.687Z,31.4
2019-04-07T00:25:33.443Z,30.9
2019-04-07T00:30:57.374Z,31.299999
2019-04-07T00:36:19.705Z,33.200001
2019-04-07T00:41:42.909Z,31.9
2019-04-07T00:47:05.235Z,31.799999
2019-04-07T00:52:27.613Z,31.799999
2019-04-07T00:57:50.775Z,31.9
2019-04-07T01:03:12.973Z,33.900002
2019-04-07T01:08:36.082Z,31.9
2019-04-07T01:13:59.146Z,32.5
2019-04-07T01:19:22.650Z,32.900002
2019-04-07T01:24:46.024Z,32.900002
2019-04-07T01:30:08.661Z,32.700001
2019-04-07T01:35:31.850Z,32.099998
2019-04-07T01:40:54.398Z,34.200001
2019-04-07T01:46:17.567Z,34.099998
2019-04-07T01:51:40.079Z,34.099998
2019-04-07T01:57:02.970Z,34.700001
2019-04-07T02:02:25.055Z,33.900002
2019-04-07T02:07:47.792Z,33.799999
2019-04-07T02:13:11.024Z,34.099998
2019-04-07T02:18:33.275Z,33
2019-04-07T02:23:56.020Z,33
2019-04-07T02:29:19.185Z,33.200001
2019-04-07T02:34:42.444Z,34.299999
2019-04-07T02:40:05.356Z,33.200001
2019-04-07T02:45:28.446Z,34.900002
2019-04-07T02:50:51.147Z,35.299999
2019-04-07T02:56:14.003Z,36
2019-04-07T03:01:37.183Z,34.599998
2019-04-07T03:07:00.607Z,34.599998
2019-04-07T03:12:23.423Z,35
2019-04-07T03:17:46.444Z,35.5
2019-04-07T03:23:09.474Z,35.599998
2019-04-07T03:28:33.293Z,34.900002
2019-04-07T03:33:56.506Z,34.200001
2019-04-07T03:39:20.432Z,33.900002
2019-04-07T03:44:42.823Z,33.200001
2019-04-07T03:50:04.391Z,31.700001
2019-04-07T03:55:28.293Z,31.6
2019-04-07T04:00:50.579Z,32.5
2019-04-07T04:06:14.052Z,30.6
2019-04-07T04:11:36.711Z,30.6
2019-04-07T04:16:59.386Z,29.700001
2019-04-07T04:22:22.892Z,30.200001
2019-04-07T04:27:44.699Z,29.4
2019-04-07T04:33:07.999Z,29.1
2019-04-07T04:38:31.952Z,29.1
2019-04-07T04:43:55.318Z,28
2019-04-07T04:49:19.007Z,28.299999
2019-04-07T04:54:42.123Z,28.6
2019-04-07T05:00:03.847Z,29.1
2019-04-07T05:05:25.980Z,29.4
2019-04-07T05:10:48.898Z,30
2019-04-07T05:16:12.827Z,31.200001
2019-04-07T05:21:35.031Z,30.4
2019-04-07T05:26:57.658Z,29
2019-04-07T05:32:21.112Z,29.1
2019-04-07T05:37:43.320Z,27.4
2019-04-07T05:43:06.283Z,28
2019-04-07T05:48:29.110Z,27.4
2019-04-07T05:53:51.674Z,27.5
2019-04-07T05:59:14.717Z,26.5
2019-04-07T06:04:38.401Z,26.799999
2019-04-07T06:10:02.276Z,26.799999
2019-04-07T06:15:25.796Z,26.1
2019-04-07T06:20:47.702Z,27.200001
2019-04-07T06:26:11.765Z,26.1
2019-04-07T06:31:34.772Z,26
2019-04-07T06:36:56.737Z,25.799999
2019-04-07T06:42:19.656Z,27.299999
2019-04-07T06:47:42.243Z,27.9
2019-04-07T06:53:05.348Z,25.6
2019-04-07T06:58:27.395Z,24.9
2019-04-07T07:03:51.359Z,26.299999
2019-04-07T07:09:15.419Z,25.799999
2019-04-07T07:14:42.548Z,27.4
2019-04-07T07:20:03.669Z,27.4
2019-04-07T07:25:26.573Z,25.9
2019-04-07T07:30:50.982Z,25.200001
2019-04-07T07:36:12.582Z,24.6
2019-04-07T07:41:35.609Z,24.799999
2019-04-07T07:46:58.145Z,26.200001
2019-04-07T07:52:21.635Z,24.6
2019-04-07T07:57:44.199Z,24.6
2019-04-07T08:03:08.531Z,23
2019-04-07T08:08:30.652Z,23.1
2019-04-07T08:13:53.606Z,22.5
2019-04-07T08:19:16.709Z,21.200001
2019-04-07T08:24:38.524Z,21.9
2019-04-07T08:30:01.617Z,20.6
2019-04-07T08:35:24.324Z,20.700001
2019-04-07T08:40:46.828Z,19.799999
2019-04-07T08:46:09.741Z,18.5
2019-04-07T08:51:32.545Z,20.299999
2019-04-07T08:56:56.717Z,21.200001
2019-04-07T09:02:19.159Z,21.700001
2019-04-07T09:07:42.152Z,21.6
2019-04-07T09:13:07.725Z,21.299999
2019-04-07T09:18:28.054Z,21.299999
2019-04-07T09:23:50.758Z,20.4
2019-04-07T09:29:13.502Z,20.4
2019-04-07T09:34:35.588Z,19.700001
2019-04-07T09:40:00.963Z,20.4
2019-04-07T09:45:21.397Z,20.200001
2019-04-07T09:50:44.036Z,20.4
2019-04-07T09:56:09.069Z,20.299999
2019-04-07T10:01:30.768Z,20.5
2019-04-07T10:06:53.068Z,21
2019-04-07T10:12:15.726Z,20.700001
2019-04-07T10:17:39.474Z,20.700001
2019-04-07T10:23:01.938Z,21.4
2019-04-07T10:28:24.586Z,19.799999
2019-04-07T10:33:47.209Z,20
2019-04-07T10:39:09.789Z,20.5
2019-04-07T10:44:32.508Z,18.6
2019-04-07T10:50:00.319Z,19
2019-04-07T10:55:18.624Z,19
2019-04-07T11:00:45.316Z,19.200001
2019-04-07T11:06:05.160Z,19.9
2019-04-07T11:11:27.579Z,19.700001
2019-04-07T11:16:50.182Z,19.700001
2019-04-07T11:22:12.881Z,19.200001
2019-04-07T11:27:35.494Z,21.799999
2019-04-07T11:32:58.872Z,22
2019-04-07T11:38:21.247Z,21.200001
2019-04-07T11:43:44.517Z,21.9
2019-04-07T11:49:10.646Z,22.6
2019-04-07T11:54:31.065Z,23.200001
2019-04-07T11:59:54.455Z,23.5
2019-04-07T12:05:17.973Z,21.700001
2019-04-07T12:10:40.597Z,21.700001
2019-04-07T12:16:03.685Z,19.6
2019-04-07T12:21:26.699Z,18.5
2019-04-07T12:26:50.630Z,20.1
2019-04-07T12:32:13.003Z,23.200001
2019-04-07T12:37:39.172Z,20.1
